createdAt,value
2023-03-31T00:02:24.022Z,7.38
2023-03-31T00:04:54.299Z,7.90
2023-03-31T00:07:25.889Z,7.30
2023-03-31T00:10:06.858Z,7.25
2023-03-31T00:12:40.416Z,7.60
2023-03-31T00:15:10.965Z,7.65
2023-03-31T00:17:44.772Z,7.50
2023-03-31T00:20:15.946Z,6.93
2023-03-31T00:22:48.405Z,6.35
2023-03-31T00:25:18.759Z,6.50
2023-03-31T00:27:51.432Z,5.70
2023-03-31T00:30:22.072Z,6.25
2023-03-31T00:32:52.511Z,6.20
2023-03-31T00:35:23.618Z,6.82
2023-03-31T00:37:54.995Z,6.45
2023-03-31T00:40:24.950Z,6.32
2023-03-31T00:42:55.603Z,6.53
2023-03-31T00:45:30.444Z,6.55
2023-03-31T00:48:17.777Z,5.82
2023-03-31T00:50:59.479Z,5.57
2023-03-31T00:53:33.756Z,5.40
2023-03-31T00:56:09.070Z,5.93
2023-03-31T00:58:44.777Z,5.53
2023-03-31T01:01:20.895Z,4.55
2023-03-31T01:03:51.617Z,4.70
2023-03-31T01:06:21.761Z,4.72
2023-03-31T01:08:53.495Z,4.50
2023-03-31T01:11:28.633Z,4.00
2023-03-31T01:13:59.263Z,4.60
2023-03-31T01:16:29.344Z,4.18
2023-03-31T01:18:59.261Z,3.80
2023-03-31T01:21:48.435Z,4.03
2023-03-31T01:25:02.639Z,3.95
2023-03-31T01:28:07.408Z,4.15
2023-03-31T01:30:58.450Z,4.13
2023-03-31T01:33:43.460Z,3.80
2023-03-31T01:36:55.693Z,3.85
2023-03-31T01:40:03.807Z,3.70
2023-03-31T01:42:39.219Z,4.05
2023-03-31T01:45:39.870Z,4.28
2023-03-31T01:48:21.541Z,4.53
2023-03-31T01:51:14.970Z,5.18
2023-03-31T01:54:10.332Z,4.68
2023-03-31T01:56:48.128Z,5.50
2023-03-31T01:59:53.280Z,5.47
2023-03-31T02:02:34.679Z,5.30
2023-03-31T02:05:28.686Z,6.22
2023-03-31T02:08:03.367Z,6.63
2023-03-31T02:10:34.648Z,7.13
2023-03-31T02:13:07.205Z,8.15
2023-03-31T02:15:40.155Z,7.68
2023-03-31T02:18:15.201Z,6.90
2023-03-31T02:20:48.001Z,6.43
2023-03-31T02:23:23.902Z,6.53
2023-03-31T02:25:57.407Z,6.18
2023-03-31T02:28:29.706Z,6.00
2023-03-31T02:31:22.376Z,6.18
2023-03-31T02:33:53.841Z,5.85
2023-03-31T02:36:24.184Z,6.18
2023-03-31T02:39:17.220Z,6.88
2023-03-31T02:41:47.296Z,7.57
2023-03-31T02:44:19.163Z,9.25
2023-03-31T02:46:49.535Z,9.50
2023-03-31T02:49:21.076Z,9.85
2023-03-31T02:52:02.381Z,9.98
2023-03-31T02:54:48.008Z,9.85
2023-03-31T02:57:45.950Z,9.52
2023-03-31T03:00:28.485Z,9.20
2023-03-31T03:03:29.647Z,9.00
2023-03-31T03:06:20.504Z,10.45
2023-03-31T03:09:13.568Z,11.05
2023-03-31T03:12:03.386Z,10.55
2023-03-31T03:14:36.785Z,12.35
2023-03-31T03:17:59.376Z,9.48
2023-03-31T03:20:29.288Z,8.15
2023-03-31T03:22:59.599Z,8.35
2023-03-31T03:25:31.398Z,21.75
2023-03-31T03:28:02.466Z,10.80
2023-03-31T03:30:32.428Z,12.10
2023-03-31T03:33:02.870Z,12.35
2023-03-31T03:35:32.699Z,12.85
2023-03-31T03:38:02.425Z,11.25
2023-03-31T03:40:32.806Z,12.93
2023-03-31T03:43:02.423Z,13.32
2023-03-31T03:45:32.866Z,13.05
2023-03-31T03:48:03.922Z,11.85
2023-03-31T03:50:36.884Z,11.30
2023-03-31T03:53:07.323Z,11.50
2023-03-31T03:55:37.422Z,10.38
2023-03-31T03:58:10.261Z,10.73
2023-03-31T04:00:40.106Z,11.15
2023-03-31T04:03:10.387Z,10.93
2023-03-31T04:05:40.715Z,11.20
2023-03-31T04:08:11.095Z,10.93
2023-03-31T04:10:50.320Z,8.55
2023-03-31T04:13:21.813Z,9.88
2023-03-31T04:15:51.682Z,15.02
2023-03-31T04:18:24.364Z,10.27
2023-03-31T04:21:07.442Z,9.60
2023-03-31T04:23:47.777Z,11.57
2023-03-31T04:26:27.753Z,11.88
2023-03-31T04:29:00.217Z,10.50
2023-03-31T04:31:32.557Z,11.45
2023-03-31T04:34:03.885Z,9.93
2023-03-31T04:36:35.538Z,10.85
2023-03-31T04:39:05.737Z,10.88
2023-03-31T04:41:36.118Z,13.48
2023-03-31T04:44:06.901Z,10.15
2023-03-31T04:46:37.504Z,10.43
2023-03-31T04:49:07.558Z,10.63
2023-03-31T04:51:37.732Z,14.55
2023-03-31T04:54:07.679Z,12.00
2023-03-31T04:56:37.983Z,12.50
2023-03-31T04:59:09.303Z,13.80
2023-03-31T05:01:39.715Z,14.82
2023-03-31T05:04:10.409Z,16.10
2023-03-31T05:06:40.626Z,17.40
2023-03-31T05:09:11.340Z,17.92
2023-03-31T05:11:41.614Z,15.43
2023-03-31T05:14:11.486Z,23.40
2023-03-31T05:16:43.124Z,27.50
2023-03-31T05:19:12.897Z,18.65
2023-03-31T05:21:42.458Z,16.98
2023-03-31T05:24:12.890Z,18.05
2023-03-31T05:26:43.056Z,19.25
2023-03-31T05:29:13.266Z,21.85
2023-03-31T05:31:43.076Z,25.25
2023-03-31T05:34:12.882Z,22.67
2023-03-31T05:36:44.604Z,23.20
2023-03-31T05:39:14.427Z,21.85
2023-03-31T05:41:44.741Z,8.93
2023-03-31T05:44:14.600Z,8.68
2023-03-31T05:46:45.577Z,14.90
2023-03-31T05:49:18.777Z,7.28
2023-03-31T05:51:49.161Z,6.78
2023-03-31T05:54:18.888Z,9.10
2023-03-31T05:56:49.030Z,7.68
2023-03-31T05:59:20.358Z,7.45
2023-03-31T06:01:50.801Z,7.85
2023-03-31T06:04:20.707Z,7.07
2023-03-31T06:06:51.507Z,7.82
2023-03-31T06:09:21.941Z,8.65
2023-03-31T06:11:52.249Z,8.77
2023-03-31T06:14:22.152Z,9.10
2023-03-31T06:16:52.491Z,10.40
2023-03-31T06:19:22.447Z,11.05
2023-03-31T06:21:53.337Z,11.23
2023-03-31T06:24:23.719Z,11.00
2023-03-31T06:26:54.169Z,9.25
2023-03-31T06:29:24.073Z,8.57
2023-03-31T06:31:54.479Z,8.05
2023-03-31T06:34:28.309Z,7.63
2023-03-31T06:36:58.508Z,7.47
2023-03-31T06:39:28.320Z,7.13
2023-03-31T06:41:58.588Z,7.22
2023-03-31T06:44:30.615Z,6.60
2023-03-31T06:47:01.683Z,6.78
2023-03-31T06:49:34.664Z,7.30
2023-03-31T06:52:05.252Z,7.65
2023-03-31T06:54:37.154Z,7.95
2023-03-31T06:57:07.437Z,6.93
2023-03-31T06:59:37.384Z,8.27
2023-03-31T07:02:07.085Z,8.38
2023-03-31T07:04:37.626Z,9.95
2023-03-31T07:07:07.668Z,9.65
2023-03-31T07:09:37.916Z,10.00
2023-03-31T07:12:07.769Z,10.80
2023-03-31T07:14:38.499Z,10.27
2023-03-31T07:17:08.252Z,10.15
2023-03-31T07:19:39.058Z,9.63
2023-03-31T07:22:09.823Z,10.38
2023-03-31T07:24:39.857Z,9.20
2023-03-31T07:27:10.229Z,8.90
2023-03-31T07:29:39.984Z,8.73
2023-03-31T07:32:10.331Z,11.32
2023-03-31T07:34:41.799Z,9.45
2023-03-31T07:37:11.977Z,11.18
2023-03-31T07:39:41.956Z,11.00
2023-03-31T07:42:12.312Z,12.40
2023-03-31T07:44:42.120Z,14.18
2023-03-31T07:47:12.279Z,13.95
2023-03-31T07:49:42.020Z,25.73
2023-03-31T07:52:11.984Z,17.30
2023-03-31T07:54:42.278Z,15.88
2023-03-31T07:57:12.158Z,15.10
2023-03-31T07:59:42.580Z,15.38
2023-03-31T08:02:15.119Z,16.02
2023-03-31T08:04:46.606Z,20.17
2023-03-31T08:07:17.885Z,17.83
2023-03-31T08:09:49.040Z,11.48
2023-03-31T08:12:18.842Z,8.32
2023-03-31T08:14:49.216Z,6.25
2023-03-31T08:17:19.130Z,7.03
2023-03-31T08:19:49.393Z,7.38
2023-03-31T08:22:19.009Z,6.60
2023-03-31T08:24:49.214Z,8.50
2023-03-31T08:27:19.711Z,12.63
2023-03-31T08:29:49.601Z,11.75
2023-03-31T08:32:19.222Z,13.45
2023-03-31T08:34:49.429Z,16.52
2023-03-31T08:37:19.021Z,18.73
2023-03-31T08:39:48.871Z,20.58
2023-03-31T08:42:26.808Z,9.55
2023-03-31T08:45:05.192Z,6.97
2023-03-31T08:47:38.062Z,7.75
2023-03-31T08:50:15.647Z,7.32
2023-03-31T08:53:05.529Z,8.48
2023-03-31T08:55:53.776Z,7.70
2023-03-31T08:58:35.318Z,6.93
2023-03-31T09:01:28.943Z,7.15
2023-03-31T09:04:16.381Z,7.28
2023-03-31T09:06:53.173Z,12.27
2023-03-31T09:09:50.447Z,13.65
2023-03-31T09:12:35.489Z,17.30
2023-03-31T09:15:16.465Z,10.65
2023-03-31T09:17:47.948Z,12.90
2023-03-31T09:20:28.151Z,7.82
2023-03-31T09:23:35.407Z,7.95
2023-03-31T09:26:07.476Z,6.55
2023-03-31T09:28:40.891Z,6.80
2023-03-31T09:31:18.857Z,6.80
2023-03-31T09:33:49.757Z,8.20
2023-03-31T09:36:23.640Z,6.97
2023-03-31T09:38:53.636Z,7.20
2023-03-31T09:41:23.815Z,7.20
2023-03-31T09:43:53.532Z,7.50
2023-03-31T09:46:28.229Z,7.53
2023-03-31T09:49:16.900Z,7.70
2023-03-31T09:51:51.356Z,7.78
2023-03-31T09:54:30.568Z,10.18
2023-03-31T09:57:00.428Z,10.63
2023-03-31T09:59:36.128Z,11.57
2023-03-31T10:02:34.340Z,12.43
2023-03-31T10:05:07.928Z,12.93
2023-03-31T10:07:37.934Z,11.27
2023-03-31T10:10:18.079Z,12.45
2023-03-31T10:12:53.364Z,13.38
2023-03-31T10:15:27.520Z,14.50
2023-03-31T10:18:00.745Z,13.20
2023-03-31T10:20:39.429Z,12.30
2023-03-31T10:23:30.050Z,13.23
2023-03-31T10:26:01.022Z,12.43
2023-03-31T10:28:35.780Z,12.02
2023-03-31T10:31:07.502Z,11.98
2023-03-31T10:33:46.082Z,12.68
2023-03-31T10:36:31.126Z,13.40
2023-03-31T10:39:01.390Z,12.40
2023-03-31T10:41:32.460Z,11.60
2023-03-31T10:44:05.944Z,13.40
2023-03-31T10:46:45.301Z,10.60
2023-03-31T10:49:27.891Z,12.30
2023-03-31T10:52:00.195Z,11.90
2023-03-31T10:54:30.387Z,10.55
2023-03-31T10:57:04.479Z,10.40
2023-03-31T11:00:00.610Z,11.60
2023-03-31T11:02:47.873Z,11.23
2023-03-31T11:05:33.285Z,11.38
2023-03-31T11:08:30.255Z,10.90
2023-03-31T11:11:18.542Z,13.88
2023-03-31T11:14:33.103Z,13.73
2023-03-31T11:17:18.783Z,13.70
2023-03-31T11:20:20.660Z,12.23
2023-03-31T11:23:13.938Z,12.02
2023-03-31T11:26:00.244Z,15.20
2023-03-31T11:28:42.405Z,11.65
2023-03-31T11:31:22.359Z,10.02
2023-03-31T11:34:26.921Z,12.52
2023-03-31T11:37:08.579Z,11.95
2023-03-31T11:39:59.984Z,12.63
2023-03-31T11:42:40.866Z,10.90
2023-03-31T11:45:21.652Z,11.80
2023-03-31T11:47:56.146Z,8.15
2023-03-31T11:50:34.167Z,8.70
2023-03-31T11:53:35.142Z,8.43
2023-03-31T11:56:08.681Z,6.15
2023-03-31T11:58:47.422Z,5.93
2023-03-31T12:01:23.685Z,6.10
2023-03-31T12:04:00.663Z,6.00
2023-03-31T12:06:34.720Z,6.18
2023-03-31T12:09:25.516Z,6.00
2023-03-31T12:11:59.509Z,6.00
2023-03-31T12:14:31.874Z,5.55
2023-03-31T12:17:15.810Z,4.70
2023-03-31T12:20:11.797Z,4.82
2023-03-31T12:22:46.092Z,4.65
2023-03-31T12:25:18.190Z,5.55
2023-03-31T12:27:51.093Z,5.20
2023-03-31T12:30:35.818Z,5.10
2023-03-31T12:36:16.633Z,5.47
2023-03-31T12:38:58.733Z,4.20
2023-03-31T12:41:40.369Z,4.30
2023-03-31T12:44:27.045Z,4.25
2023-03-31T12:47:25.699Z,4.30
2023-03-31T12:50:04.404Z,4.63
2023-03-31T12:53:07.254Z,4.45
2023-03-31T12:55:42.721Z,4.53
2023-03-31T12:58:36.130Z,5.45
2023-03-31T13:01:15.973Z,5.20
2023-03-31T13:04:14.193Z,5.50
2023-03-31T13:06:45.450Z,5.80
2023-03-31T13:09:15.034Z,6.22
2023-03-31T13:11:50.662Z,5.45
2023-03-31T13:14:38.845Z,5.25
2023-03-31T13:17:26.729Z,5.03
2023-03-31T13:19:59.487Z,5.32
2023-03-31T13:22:38.078Z,5.03
2023-03-31T13:25:33.246Z,5.80
2023-03-31T13:28:11.720Z,6.07
2023-03-31T13:30:42.168Z,5.53
2023-03-31T13:33:42.438Z,5.55
2023-03-31T13:36:12.617Z,5.55
2023-03-31T13:39:00.400Z,5.35
2023-03-31T13:41:30.604Z,5.15
2023-03-31T13:44:06.110Z,5.47
2023-03-31T13:47:03.457Z,5.97
2023-03-31T13:49:36.447Z,5.57
2023-03-31T13:52:11.859Z,5.60
2023-03-31T13:55:08.467Z,5.90
2023-03-31T13:57:52.009Z,6.53
2023-03-31T14:00:55.376Z,6.18
2023-03-31T14:03:38.963Z,6.50
2023-03-31T14:06:14.441Z,6.95
2023-03-31T14:08:55.149Z,6.80
2023-03-31T14:11:32.825Z,6.40
2023-03-31T14:14:11.901Z,6.68
2023-03-31T14:16:47.381Z,6.03
2023-03-31T14:19:17.503Z,6.38
2023-03-31T14:22:02.982Z,6.13
2023-03-31T14:24:46.495Z,6.22
2023-03-31T14:27:44.875Z,6.70
2023-03-31T14:30:36.273Z,5.97
2023-03-31T14:33:43.284Z,5.82
2023-03-31T14:36:29.498Z,5.10
2023-03-31T14:39:05.735Z,5.45
2023-03-31T14:41:39.090Z,5.30
2023-03-31T14:44:14.292Z,5.35
2023-03-31T14:46:44.501Z,5.72
2023-03-31T14:49:22.006Z,5.78
2023-03-31T14:51:54.465Z,4.93
2023-03-31T14:54:24.249Z,5.85
2023-03-31T14:57:00.722Z,5.35
2023-03-31T14:59:34.016Z,6.60
2023-03-31T15:02:06.640Z,6.00
2023-03-31T15:04:47.645Z,6.03
2023-03-31T15:07:19.142Z,5.30
2023-03-31T15:09:52.463Z,5.45
2023-03-31T15:12:24.844Z,5.32
2023-03-31T15:14:59.212Z,5.22
2023-03-31T15:17:37.986Z,5.60
2023-03-31T15:20:30.717Z,5.45
2023-03-31T15:23:01.555Z,5.00
2023-03-31T15:25:39.290Z,4.75
2023-03-31T15:28:14.815Z,4.30
2023-03-31T15:30:48.971Z,4.35
2023-03-31T15:33:27.684Z,3.92
2023-03-31T15:35:59.329Z,3.85
2023-03-31T15:38:32.307Z,3.78
2023-03-31T15:41:02.764Z,3.72
2023-03-31T15:43:44.567Z,3.72
2023-03-31T15:46:42.148Z,3.42
2023-03-31T15:49:23.876Z,3.88
2023-03-31T15:51:57.619Z,3.83
2023-03-31T15:54:44.914Z,3.50
2023-03-31T15:57:23.487Z,3.38
2023-03-31T15:59:58.946Z,3.42
2023-03-31T16:02:50.521Z,3.22
2023-03-31T16:05:53.374Z,3.58
2023-03-31T16:08:33.729Z,3.22
2023-03-31T16:11:08.521Z,3.40
2023-03-31T16:13:43.394Z,3.25
2023-03-31T16:16:16.804Z,3.42
2023-03-31T16:19:06.935Z,2.92
2023-03-31T16:21:53.907Z,2.55
2023-03-31T16:24:32.823Z,3.10
2023-03-31T16:27:07.445Z,2.63
2023-03-31T16:29:39.227Z,3.10
2023-03-31T16:32:14.712Z,2.75
2023-03-31T16:35:03.040Z,2.97
2023-03-31T16:37:33.215Z,2.97
2023-03-31T16:40:03.533Z,2.58
2023-03-31T16:42:39.221Z,2.60
2023-03-31T16:45:14.438Z,2.95
2023-03-31T16:47:45.819Z,2.60
2023-03-31T16:52:46.616Z,2.97
2023-03-31T16:55:17.236Z,2.85
2023-03-31T16:57:47.387Z,2.60
2023-03-31T17:00:18.056Z,2.63
2023-03-31T17:02:48.794Z,2.50
2023-03-31T17:05:19.117Z,2.78
2023-03-31T17:07:48.882Z,3.13
2023-03-31T17:10:19.269Z,2.53
2023-03-31T17:12:49.049Z,2.58
2023-03-31T17:15:19.081Z,2.38
2023-03-31T17:17:49.699Z,2.78
2023-03-31T17:20:21.029Z,2.78
2023-03-31T17:22:51.302Z,3.00
2023-03-31T17:25:21.530Z,2.97
2023-03-31T17:27:52.174Z,2.97
2023-03-31T17:30:22.268Z,2.70
2023-03-31T17:32:52.447Z,2.83
2023-03-31T17:35:23.576Z,2.47
2023-03-31T17:37:56.794Z,2.78
2023-03-31T17:40:28.102Z,3.00
2023-03-31T17:42:58.063Z,2.67
2023-03-31T17:45:27.692Z,2.50
2023-03-31T17:47:58.085Z,2.63
2023-03-31T17:50:29.562Z,2.63
2023-03-31T17:53:00.112Z,2.70
2023-03-31T17:55:30.016Z,2.88
2023-03-31T17:58:00.455Z,2.90
2023-03-31T18:00:30.435Z,2.63
2023-03-31T18:03:00.757Z,2.92
2023-03-31T18:05:30.868Z,3.03
2023-03-31T18:08:01.488Z,2.70
2023-03-31T18:10:31.328Z,2.60
2023-03-31T18:13:01.684Z,2.45
2023-03-31T18:15:31.490Z,2.75
2023-03-31T18:18:02.803Z,2.33
2023-03-31T18:20:33.646Z,2.20
2023-03-31T18:23:04.090Z,1.90
2023-03-31T18:25:34.531Z,2.10
2023-03-31T18:28:05.306Z,2.22
2023-03-31T18:30:35.110Z,1.85
2023-03-31T18:33:04.797Z,1.70
2023-03-31T18:35:35.249Z,1.80
2023-03-31T18:38:05.133Z,1.63
2023-03-31T18:40:35.566Z,1.58
2023-03-31T18:43:06.059Z,2.45
2023-03-31T18:45:39.610Z,1.80
2023-03-31T18:48:09.436Z,1.38
2023-03-31T18:50:39.076Z,1.77
2023-03-31T18:53:09.233Z,1.92
2023-03-31T18:55:39.144Z,1.80
2023-03-31T18:58:10.253Z,1.85
2023-03-31T19:00:43.467Z,1.95
2023-03-31T19:03:14.907Z,1.58
2023-03-31T19:05:44.817Z,2.05
2023-03-31T19:08:15.185Z,1.90
2023-03-31T19:10:45.186Z,2.53
2023-03-31T19:13:18.500Z,2.10
2023-03-31T19:15:48.391Z,1.98
2023-03-31T19:18:18.291Z,1.88
2023-03-31T19:20:49.833Z,2.50
2023-03-31T19:23:19.566Z,2.35
2023-03-31T19:25:53.714Z,2.13
2023-03-31T19:28:25.298Z,2.00
2023-03-31T19:30:57.802Z,2.47
2023-03-31T19:33:28.714Z,2.00
2023-03-31T19:35:58.892Z,2.58
2023-03-31T19:38:33.061Z,2.08
2023-03-31T19:41:02.864Z,2.05
2023-03-31T19:43:33.697Z,2.28
2023-03-31T19:46:03.552Z,2.08
2023-03-31T19:48:34.883Z,2.55
2023-03-31T19:51:09.617Z,2.20
2023-03-31T19:53:40.556Z,2.42
2023-03-31T19:56:13.797Z,2.20
2023-03-31T19:58:43.740Z,2.40
2023-03-31T20:01:23.636Z,2.22
2023-03-31T20:03:57.139Z,2.58
2023-03-31T20:06:29.746Z,2.55
2023-03-31T20:09:01.650Z,2.30
2023-03-31T20:11:33.525Z,2.70
2023-03-31T20:14:04.901Z,2.22
2023-03-31T20:16:36.138Z,2.13
2023-03-31T20:19:07.355Z,2.42
2023-03-31T20:21:39.003Z,2.33
2023-03-31T20:24:09.585Z,1.85
2023-03-31T20:26:39.725Z,2.40
2023-03-31T20:29:09.372Z,2.20
2023-03-31T20:31:41.196Z,2.42
2023-03-31T20:34:16.151Z,2.10
2023-03-31T20:36:50.319Z,2.25
2023-03-31T20:39:21.082Z,2.70
2023-03-31T20:41:51.573Z,2.90
2023-03-31T20:44:22.469Z,2.63
2023-03-31T20:46:53.518Z,2.53
2023-03-31T20:49:23.734Z,4.05
2023-03-31T20:51:53.541Z,3.15
2023-03-31T20:54:23.586Z,3.10
2023-03-31T20:56:53.891Z,3.10
2023-03-31T20:59:24.792Z,3.08
2023-03-31T21:01:55.153Z,3.10
2023-03-31T21:05:20.256Z,3.70
2023-03-31T21:08:08.921Z,3.47
2023-03-31T21:10:46.074Z,3.10
2023-03-31T21:13:19.082Z,2.85
2023-03-31T21:15:51.722Z,4.25
2023-03-31T21:18:22.506Z,5.13
2023-03-31T21:20:58.121Z,7.55
2023-03-31T21:23:29.701Z,9.10
2023-03-31T21:26:02.837Z,8.48
2023-03-31T21:28:35.706Z,8.65
2023-03-31T21:31:09.826Z,8.02
2023-03-31T21:33:44.027Z,8.23
2023-03-31T21:36:19.849Z,8.65
2023-03-31T21:38:51.405Z,7.22
2023-03-31T21:41:27.461Z,11.02
2023-03-31T21:44:01.701Z,14.00
2023-03-31T21:46:34.167Z,15.35
2023-03-31T21:49:05.513Z,19.27
2023-03-31T21:51:35.471Z,18.70
2023-03-31T21:54:06.065Z,15.45
2023-03-31T21:56:35.910Z,14.05
2023-03-31T21:59:06.489Z,14.65
2023-03-31T22:01:36.525Z,15.27
2023-03-31T22:04:08.580Z,15.60
2023-03-31T22:06:40.350Z,13.98
2023-03-31T22:09:10.857Z,14.07
2023-03-31T22:11:43.302Z,13.23
2023-03-31T22:14:13.927Z,7.65
2023-03-31T22:16:44.151Z,5.93
2023-03-31T22:19:15.167Z,5.10
2023-03-31T22:21:46.160Z,4.85
2023-03-31T22:24:16.586Z,3.88
2023-03-31T22:26:46.705Z,3.75
2023-03-31T22:29:17.714Z,4.07
2023-03-31T22:31:47.858Z,3.85
2023-03-31T22:34:20.601Z,3.97
2023-03-31T22:36:50.654Z,3.47
2023-03-31T22:39:21.571Z,3.92
2023-03-31T22:41:51.948Z,4.20
2023-03-31T22:44:22.877Z,3.55
2023-03-31T22:46:52.859Z,3.65
2023-03-31T22:49:23.375Z,4.07
2023-03-31T22:51:55.788Z,3.60
2023-03-31T22:54:26.819Z,3.42
2023-03-31T22:56:58.271Z,3.88
2023-03-31T22:59:28.845Z,3.55
2023-03-31T23:01:58.811Z,4.03
2023-03-31T23:04:29.420Z,4.22
2023-03-31T23:06:59.388Z,3.10
2023-03-31T23:09:29.892Z,3.22
2023-03-31T23:11:59.951Z,3.00
2023-03-31T23:14:30.440Z,2.67
2023-03-31T23:17:00.551Z,4.88
2023-03-31T23:19:31.030Z,6.32
2023-03-31T23:22:03.210Z,6.22
2023-03-31T23:24:33.736Z,5.60
2023-03-31T23:27:03.717Z,5.00
2023-03-31T23:29:34.743Z,4.95
2023-03-31T23:32:05.311Z,4.82
2023-03-31T23:34:35.814Z,5.43
2023-03-31T23:37:05.813Z,4.10
2023-03-31T23:39:36.386Z,4.18
2023-03-31T23:42:09.342Z,4.32
2023-03-31T23:44:39.819Z,4.10
2023-03-31T23:47:09.831Z,3.65
2023-03-31T23:49:40.362Z,4.03
2023-03-31T23:52:10.348Z,4.93
2023-03-31T23:54:40.821Z,4.40
2023-03-31T23:57:11.046Z,4.88
2023-03-31T23:59:41.654Z,4.75
